createdAt,value
2022-10-23T00:02:00.438Z,1.47
2022-10-23T00:04:26.809Z,1.59
2022-10-23T00:06:53.165Z,1.49
2022-10-23T00:09:19.525Z,1.60
2022-10-23T00:11:45.876Z,1.49
2022-10-23T00:14:12.252Z,1.43
2022-10-23T00:16:38.591Z,1.47
2022-10-23T00:19:05.020Z,1.45
2022-10-23T00:21:31.363Z,1.41
2022-10-23T00:23:57.853Z,1.44
2022-10-23T00:26:24.217Z,1.40
2022-10-23T00:28:50.580Z,1.41
2022-10-23T00:31:16.933Z,1.52
2022-10-23T00:33:43.309Z,1.59
2022-10-23T00:36:09.665Z,1.42
2022-10-23T00:38:36.016Z,1.40
2022-10-23T00:41:02.361Z,1.47
2022-10-23T00:43:28.719Z,1.52
2022-10-23T00:45:55.084Z,1.58
2022-10-23T00:48:21.457Z,1.54
2022-10-23T00:50:47.801Z,1.49
2022-10-23T00:53:14.199Z,1.38
2022-10-23T00:55:40.545Z,1.28
2022-10-23T00:58:06.908Z,1.41
2022-10-23T01:00:33.290Z,1.51
2022-10-23T01:02:59.649Z,1.44
2022-10-23T01:05:26.007Z,1.39
2022-10-23T01:07:52.365Z,1.58
2022-10-23T01:10:18.736Z,1.51
2022-10-23T01:12:45.081Z,1.43
2022-10-23T01:15:11.429Z,1.49
2022-10-23T01:17:39.693Z,2.06
2022-10-23T01:20:08.762Z,2.14
2022-10-23T01:22:35.135Z,1.64
2022-10-23T01:25:01.494Z,1.61
2022-10-23T01:27:27.853Z,1.42
2022-10-23T01:29:54.203Z,1.91
2022-10-23T01:32:20.565Z,1.78
2022-10-23T01:34:46.933Z,1.72
2022-10-23T01:37:13.312Z,1.73
2022-10-23T01:39:39.674Z,1.59
2022-10-23T01:42:06.055Z,1.62
2022-10-23T01:44:32.398Z,1.34
2022-10-23T01:46:58.756Z,1.51
2022-10-23T01:49:25.091Z,1.57
2022-10-23T01:51:51.449Z,1.72
2022-10-23T01:54:17.809Z,1.57
2022-10-23T01:56:44.178Z,1.42
2022-10-23T01:59:10.541Z,1.56
2022-10-23T02:01:37.013Z,1.81
2022-10-23T02:04:03.470Z,1.73
2022-10-23T02:06:29.824Z,1.89
2022-10-23T02:08:56.193Z,1.70
2022-10-23T02:11:22.557Z,1.80
2022-10-23T02:13:48.911Z,1.69
2022-10-23T02:16:15.267Z,1.49
2022-10-23T02:18:41.640Z,1.50
2022-10-23T02:21:07.989Z,1.67
2022-10-23T02:23:34.330Z,1.68
2022-10-23T02:26:00.693Z,1.62
2022-10-23T02:28:27.066Z,1.42
2022-10-23T02:30:53.417Z,1.41
2022-10-23T02:33:19.765Z,1.74
2022-10-23T02:35:46.126Z,1.47
2022-10-23T02:38:12.499Z,1.52
2022-10-23T02:40:38.865Z,1.47
2022-10-23T02:43:05.202Z,1.57
2022-10-23T02:45:31.593Z,1.67
2022-10-23T02:47:58.005Z,1.46
2022-10-23T02:50:24.369Z,1.67
2022-10-23T02:52:50.731Z,2.24
2022-10-23T02:55:17.085Z,2.03
2022-10-23T02:57:43.645Z,1.93
2022-10-23T03:00:10.286Z,1.95
2022-10-23T03:02:36.653Z,1.91
2022-10-23T03:05:03.004Z,1.95
2022-10-23T03:07:29.349Z,1.89
2022-10-23T03:09:55.716Z,2.04
2022-10-23T03:12:22.057Z,2.07
2022-10-23T03:14:48.435Z,2.03
2022-10-23T03:17:14.774Z,2.06
2022-10-23T03:19:41.142Z,2.02
2022-10-23T03:22:07.481Z,1.97
2022-10-23T03:24:33.845Z,1.90
2022-10-23T03:27:00.203Z,1.93
2022-10-23T03:29:26.555Z,1.87
2022-10-23T03:31:52.941Z,1.69
2022-10-23T03:34:19.277Z,1.41
2022-10-23T03:36:45.644Z,1.49
2022-10-23T03:39:12.003Z,1.45
2022-10-23T03:41:38.367Z,1.47
2022-10-23T03:46:35.978Z,1.80
2022-10-23T03:49:02.344Z,1.66
2022-10-23T03:51:28.726Z,1.58
2022-10-23T03:53:55.092Z,1.61
2022-10-23T03:56:21.429Z,1.73
2022-10-23T03:58:47.811Z,1.73
2022-10-23T04:01:14.237Z,1.81
2022-10-23T04:03:40.633Z,1.62
2022-10-23T04:06:06.983Z,1.33
2022-10-23T04:08:33.341Z,1.27
2022-10-23T04:10:59.745Z,1.42
2022-10-23T04:13:26.107Z,1.58
2022-10-23T04:15:52.471Z,1.80
2022-10-23T04:18:18.852Z,1.60
2022-10-23T04:20:45.219Z,1.53
2022-10-23T04:23:11.625Z,1.52
2022-10-23T04:25:38.041Z,1.54
2022-10-23T04:28:04.409Z,1.50
2022-10-23T04:30:30.787Z,1.63
2022-10-23T04:32:57.144Z,1.39
2022-10-23T04:35:23.515Z,1.54
2022-10-23T04:37:49.867Z,1.47
2022-10-23T04:40:16.221Z,1.60
2022-10-23T04:42:42.794Z,1.65
2022-10-23T04:45:09.346Z,1.63
2022-10-23T04:47:35.707Z,1.82
2022-10-23T04:50:02.066Z,1.78
2022-10-23T04:52:28.442Z,1.59
2022-10-23T04:54:54.794Z,2.02
2022-10-23T04:57:21.144Z,1.84
2022-10-23T04:59:47.498Z,1.57
2022-10-23T05:02:13.844Z,1.76
2022-10-23T05:04:40.213Z,1.72
2022-10-23T05:07:06.572Z,1.65
2022-10-23T05:09:32.943Z,1.54
2022-10-23T05:11:59.305Z,1.52
2022-10-23T05:14:25.665Z,1.82
2022-10-23T05:16:52.019Z,1.89
2022-10-23T05:19:21.953Z,1.66
2022-10-23T05:21:50.577Z,1.85
2022-10-23T05:24:16.945Z,1.93
2022-10-23T05:26:43.308Z,1.60
2022-10-23T05:29:09.659Z,1.70
2022-10-23T05:31:36.019Z,1.62
2022-10-23T05:34:02.393Z,1.66
2022-10-23T05:36:28.754Z,1.70
2022-10-23T05:38:55.142Z,1.73
2022-10-23T05:41:21.491Z,1.56
2022-10-23T05:43:47.880Z,1.84
2022-10-23T05:46:14.257Z,1.78
2022-10-23T05:48:40.619Z,1.82
2022-10-23T05:51:06.995Z,1.74
2022-10-23T05:53:34.561Z,1.77
2022-10-23T05:56:02.543Z,1.74
2022-10-23T05:58:28.933Z,1.67
2022-10-23T06:00:55.302Z,1.61
2022-10-23T06:03:21.648Z,2.01
2022-10-23T06:05:47.988Z,1.80
2022-10-23T06:08:14.347Z,1.69
2022-10-23T06:10:40.695Z,1.67
2022-10-23T06:13:07.065Z,1.53
2022-10-23T06:15:33.407Z,1.59
2022-10-23T06:17:59.802Z,1.49
2022-10-23T06:20:28.010Z,1.78
2022-10-23T06:22:55.232Z,1.67
2022-10-23T06:25:21.607Z,1.71
2022-10-23T06:27:47.955Z,1.81
2022-10-23T06:30:14.319Z,1.81
2022-10-23T06:32:41.238Z,1.81
2022-10-23T06:35:07.899Z,1.89
2022-10-23T06:37:34.281Z,1.77
2022-10-23T06:40:00.661Z,1.73
2022-10-23T06:42:27.025Z,1.72
2022-10-23T06:44:53.393Z,1.71
2022-10-23T06:47:19.771Z,1.74
2022-10-23T06:49:46.135Z,1.94
2022-10-23T06:52:18.512Z,1.66
2022-10-23T06:54:58.885Z,2.00
2022-10-23T06:57:25.251Z,1.77
2022-10-23T06:59:51.600Z,1.81
2022-10-23T07:02:17.988Z,1.93
2022-10-23T07:04:44.326Z,2.51
2022-10-23T07:07:10.708Z,2.42
2022-10-23T07:09:37.061Z,2.10
2022-10-23T07:12:03.421Z,2.24
2022-10-23T07:14:29.773Z,2.43
2022-10-23T07:16:56.133Z,2.17
2022-10-23T07:19:22.489Z,2.19
2022-10-23T07:21:48.838Z,2.12
2022-10-23T07:24:15.192Z,1.92
2022-10-23T07:26:41.607Z,2.38
2022-10-23T07:29:08.056Z,2.89
2022-10-23T07:31:34.410Z,3.37
2022-10-23T07:34:00.779Z,3.56
2022-10-23T07:36:27.138Z,3.27
2022-10-23T07:38:53.506Z,3.09
2022-10-23T07:41:19.864Z,2.18
2022-10-23T07:43:46.211Z,1.83
2022-10-23T07:46:12.561Z,2.21
2022-10-23T07:48:38.953Z,2.23
2022-10-23T07:51:05.293Z,2.37
2022-10-23T07:53:31.657Z,2.43
2022-10-23T07:55:58.034Z,2.47
2022-10-23T07:58:24.412Z,2.62
2022-10-23T08:00:50.775Z,2.88
2022-10-23T08:03:17.119Z,3.61
2022-10-23T08:05:43.489Z,3.97
2022-10-23T08:08:09.923Z,4.01
2022-10-23T08:10:36.262Z,4.49
2022-10-23T08:13:02.652Z,4.44
2022-10-23T08:15:29.015Z,4.16
2022-10-23T08:17:55.373Z,4.43
2022-10-23T08:20:21.740Z,4.34
2022-10-23T08:22:48.083Z,4.57
2022-10-23T08:25:14.491Z,4.23
2022-10-23T08:27:41.141Z,4.27
2022-10-23T08:30:07.771Z,4.42
2022-10-23T08:32:34.124Z,4.09
2022-10-23T08:35:00.482Z,4.43
2022-10-23T08:37:26.831Z,4.23
2022-10-23T08:39:53.428Z,3.71
2022-10-23T08:42:19.903Z,4.00
2022-10-23T08:44:46.283Z,3.58
2022-10-23T08:47:12.638Z,3.33
2022-10-23T08:49:39.000Z,4.04
2022-10-23T08:52:06.507Z,3.39
2022-10-23T08:54:34.487Z,3.74
2022-10-23T08:57:00.835Z,3.70
2022-10-23T08:59:27.194Z,3.69
2022-10-23T09:01:53.648Z,3.66
2022-10-23T09:04:20.048Z,3.66
2022-10-23T09:06:46.391Z,3.49
2022-10-23T09:09:12.743Z,3.47
2022-10-23T09:11:39.099Z,3.64
2022-10-23T09:14:05.467Z,3.61
2022-10-23T09:16:31.822Z,3.84
2022-10-23T09:18:58.184Z,3.93
2022-10-23T09:21:24.569Z,3.72
2022-10-23T09:23:50.917Z,4.19
2022-10-23T09:26:17.278Z,3.88
2022-10-23T09:28:43.664Z,4.00
2022-10-23T09:31:10.024Z,3.74
2022-10-23T09:33:36.372Z,4.18
2022-10-23T09:36:02.728Z,4.53
2022-10-23T09:38:29.098Z,4.28
2022-10-23T09:40:55.450Z,4.59
2022-10-23T09:43:21.826Z,4.33
2022-10-23T09:45:48.201Z,4.26
2022-10-23T09:48:15.137Z,4.33
2022-10-23T09:50:41.517Z,4.55
2022-10-23T09:53:07.859Z,4.75
2022-10-23T09:55:34.229Z,4.43
2022-10-23T09:58:00.601Z,4.67
2022-10-23T10:00:26.969Z,4.63
2022-10-23T10:02:53.363Z,4.64
2022-10-23T10:05:19.806Z,4.60
2022-10-23T10:07:46.214Z,4.62
2022-10-23T10:10:12.575Z,5.12
2022-10-23T10:12:38.918Z,4.96
2022-10-23T10:15:05.267Z,5.36
2022-10-23T10:17:31.620Z,5.13
2022-10-23T10:19:57.968Z,6.23
2022-10-23T10:22:24.343Z,5.66
2022-10-23T10:24:50.689Z,5.43
2022-10-23T10:27:17.082Z,5.72
2022-10-23T10:29:43.445Z,5.63
2022-10-23T10:32:09.802Z,5.55
2022-10-23T10:34:36.197Z,5.76
2022-10-23T10:37:02.561Z,5.18
2022-10-23T10:39:28.947Z,5.47
2022-10-23T10:41:55.343Z,5.22
2022-10-23T10:44:21.692Z,4.78
2022-10-23T10:46:48.035Z,4.80
2022-10-23T10:49:14.398Z,4.89
2022-10-23T10:51:40.781Z,5.00
2022-10-23T10:54:07.142Z,4.89
2022-10-23T10:56:33.490Z,5.03
2022-10-23T10:58:59.833Z,4.61
2022-10-23T11:01:26.317Z,4.99
2022-10-23T11:03:52.747Z,5.57
2022-10-23T11:06:19.099Z,5.53
2022-10-23T11:08:57.207Z,5.07
2022-10-23T11:11:30.305Z,5.27
2022-10-23T11:13:56.650Z,5.56
2022-10-23T11:16:23.009Z,4.90
2022-10-23T11:18:49.364Z,4.81
2022-10-23T11:21:15.781Z,5.34
2022-10-23T11:23:42.150Z,5.34
2022-10-23T11:26:08.534Z,5.04
2022-10-23T11:28:34.898Z,5.40
2022-10-23T11:31:01.277Z,5.26
2022-10-23T11:33:27.653Z,5.15
2022-10-23T11:35:54.024Z,5.81
2022-10-23T11:38:20.443Z,5.62
2022-10-23T11:40:46.852Z,5.47
2022-10-23T11:43:13.248Z,5.22
2022-10-23T11:45:39.587Z,5.58
2022-10-23T11:48:05.943Z,5.10
2022-10-23T11:50:32.323Z,5.41
2022-10-23T11:53:15.602Z,5.52
2022-10-23T11:55:42.554Z,6.11
2022-10-23T11:58:08.913Z,6.05
2022-10-23T12:00:35.270Z,6.19
2022-10-23T12:03:01.702Z,6.80
2022-10-23T12:05:28.138Z,6.85
2022-10-23T12:07:54.506Z,6.88
2022-10-23T12:10:20.864Z,6.95
2022-10-23T12:12:47.298Z,6.82
2022-10-23T12:15:13.678Z,6.58
2022-10-23T12:17:40.181Z,6.53
2022-10-23T12:20:06.631Z,6.59
2022-10-23T12:22:32.974Z,6.46
2022-10-23T12:24:59.339Z,6.26
2022-10-23T12:27:25.733Z,6.73
2022-10-23T12:29:52.073Z,6.67
2022-10-23T12:32:18.456Z,6.75
2022-10-23T12:34:44.792Z,6.89
2022-10-23T12:37:11.157Z,6.91
2022-10-23T12:39:37.524Z,6.38
2022-10-23T12:42:03.902Z,6.75
2022-10-23T12:44:30.278Z,6.87
2022-10-23T12:46:56.640Z,6.28
2022-10-23T12:49:22.997Z,6.90
2022-10-23T12:51:49.358Z,6.69
2022-10-23T12:54:15.746Z,7.13
2022-10-23T12:56:42.093Z,6.83
2022-10-23T12:59:08.459Z,6.40
2022-10-23T13:01:34.944Z,5.42
2022-10-23T13:04:01.399Z,5.39
2022-10-23T13:06:27.750Z,5.24
2022-10-23T13:08:54.108Z,5.89
2022-10-23T13:11:20.469Z,5.82
2022-10-23T13:13:46.824Z,5.97
2022-10-23T13:16:13.160Z,6.10
2022-10-23T13:18:39.526Z,5.90
2022-10-23T13:21:05.882Z,6.33
2022-10-23T13:23:32.251Z,6.28
2022-10-23T13:25:58.602Z,6.66
2022-10-23T13:28:25.013Z,6.45
2022-10-23T13:30:51.361Z,5.90
2022-10-23T13:33:17.721Z,6.06
2022-10-23T13:35:44.085Z,5.76
2022-10-23T13:38:10.445Z,6.02
2022-10-23T13:40:36.817Z,5.86
2022-10-23T13:43:03.175Z,6.12
2022-10-23T13:45:29.531Z,5.30
2022-10-23T13:47:55.864Z,5.00
2022-10-23T13:50:22.248Z,5.16
2022-10-23T13:52:48.610Z,5.59
2022-10-23T13:55:14.960Z,5.56
2022-10-23T13:57:41.560Z,5.51
2022-10-23T14:00:08.088Z,5.52
2022-10-23T14:02:34.488Z,5.42
2022-10-23T14:05:00.899Z,5.01
2022-10-23T14:07:27.245Z,4.26
2022-10-23T14:09:53.593Z,3.68
2022-10-23T14:12:19.969Z,3.18
2022-10-23T14:14:46.328Z,4.45
2022-10-23T14:17:12.687Z,4.67
2022-10-23T14:19:39.043Z,4.92
2022-10-23T14:22:05.402Z,5.56
2022-10-23T14:24:31.757Z,5.56
2022-10-23T14:26:58.094Z,5.76
2022-10-23T14:29:24.686Z,5.33
2022-10-23T14:31:51.079Z,5.45
2022-10-23T14:34:17.491Z,5.65
2022-10-23T14:36:50.184Z,4.85
2022-10-23T14:39:22.949Z,5.70
2022-10-23T14:41:49.309Z,5.54
2022-10-23T14:44:15.664Z,5.78
2022-10-23T14:46:42.029Z,5.54
2022-10-23T14:49:08.372Z,5.66
2022-10-23T14:51:34.745Z,6.23
2022-10-23T14:54:01.102Z,6.26
2022-10-23T14:56:27.520Z,6.52
2022-10-23T14:58:53.863Z,6.14
2022-10-23T15:01:20.349Z,6.09
2022-10-23T15:03:46.813Z,5.55
2022-10-23T15:06:17.525Z,5.30
2022-10-23T15:08:44.775Z,5.38
2022-10-23T15:11:12.640Z,5.53
2022-10-23T15:13:39.278Z,5.13
2022-10-23T15:16:05.631Z,5.29
2022-10-23T15:18:32.026Z,5.13
2022-10-23T15:20:58.411Z,5.52
2022-10-23T15:23:24.784Z,5.24
2022-10-23T15:25:51.159Z,4.96
2022-10-23T15:28:17.513Z,4.46
2022-10-23T15:30:43.891Z,4.78
2022-10-23T15:33:10.253Z,4.90
2022-10-23T15:35:36.608Z,4.97
2022-10-23T15:38:02.971Z,4.76
2022-10-23T15:40:29.334Z,4.69
2022-10-23T15:42:55.695Z,4.72
2022-10-23T15:45:22.059Z,4.80
2022-10-23T15:47:48.402Z,5.04
2022-10-23T15:50:14.764Z,5.18
2022-10-23T15:52:41.232Z,5.19
2022-10-23T15:55:07.837Z,4.87
2022-10-23T15:57:34.190Z,4.44
2022-10-23T16:00:00.674Z,3.82
2022-10-23T16:02:27.173Z,3.53
2022-10-23T16:04:53.676Z,3.44
2022-10-23T16:07:20.107Z,3.62
2022-10-23T16:09:46.446Z,4.08
2022-10-23T16:12:12.830Z,4.38
2022-10-23T16:14:39.184Z,3.75
2022-10-23T16:17:05.583Z,3.98
2022-10-23T16:19:31.978Z,4.06
2022-10-23T16:21:58.354Z,3.74
2022-10-23T16:24:24.725Z,3.32
2022-10-23T16:26:51.064Z,3.73
2022-10-23T16:29:17.419Z,4.36
2022-10-23T16:31:43.781Z,4.17
2022-10-23T16:34:10.131Z,4.15
2022-10-23T16:36:36.482Z,4.03
2022-10-23T16:39:02.820Z,4.11
2022-10-23T16:41:29.183Z,4.07
2022-10-23T16:43:55.545Z,3.58
2022-10-23T16:46:21.925Z,3.65
2022-10-23T16:48:48.291Z,3.63
2022-10-23T16:51:14.654Z,3.65
2022-10-23T16:53:40.990Z,3.62
2022-10-23T16:56:07.333Z,3.67
2022-10-23T16:58:33.708Z,3.58
2022-10-23T17:01:00.206Z,3.90
2022-10-23T17:03:26.668Z,3.84
2022-10-23T17:05:53.026Z,3.73
2022-10-23T17:08:19.394Z,4.00
2022-10-23T17:10:45.759Z,4.21
2022-10-23T17:13:12.099Z,4.20
2022-10-23T17:18:09.725Z,4.08
2022-10-23T17:20:36.094Z,4.26
2022-10-23T17:23:02.439Z,3.98
2022-10-23T17:25:28.816Z,4.05
2022-10-23T17:27:55.186Z,4.07
2022-10-23T17:30:21.540Z,3.85
2022-10-23T17:32:47.997Z,4.16
2022-10-23T17:35:14.383Z,4.24
2022-10-23T17:37:40.743Z,4.11
2022-10-23T17:40:07.110Z,4.20
2022-10-23T17:42:33.469Z,4.52
2022-10-23T17:44:59.829Z,4.47
2022-10-23T17:47:26.221Z,4.31
2022-10-23T17:49:52.572Z,4.29
2022-10-23T17:52:18.937Z,5.12
2022-10-23T17:54:45.278Z,4.89
2022-10-23T17:57:11.700Z,5.15
2022-10-23T17:59:38.125Z,5.01
2022-10-23T18:02:04.550Z,5.48
2022-10-23T18:04:30.995Z,5.37
2022-10-23T18:06:57.353Z,5.62
2022-10-23T18:09:23.712Z,5.91
2022-10-23T18:11:50.076Z,6.28
2022-10-23T18:14:16.475Z,6.07
2022-10-23T18:16:42.832Z,5.97
2022-10-23T18:19:09.175Z,6.34
2022-10-23T18:21:35.530Z,5.72
2022-10-23T18:24:01.879Z,5.37
2022-10-23T18:26:28.235Z,5.49
2022-10-23T18:28:54.597Z,5.85
2022-10-23T18:31:20.957Z,6.14
2022-10-23T18:33:47.327Z,5.97
2022-10-23T18:36:13.685Z,5.67
2022-10-23T18:38:40.036Z,5.78
2022-10-23T18:41:06.450Z,6.08
2022-10-23T18:43:43.091Z,6.32
2022-10-23T18:46:10.317Z,6.74
2022-10-23T18:48:36.729Z,7.06
2022-10-23T18:51:03.099Z,7.61
2022-10-23T18:53:29.486Z,7.57
2022-10-23T18:55:55.860Z,7.41
2022-10-23T18:58:22.249Z,7.11
2022-10-23T19:00:48.612Z,7.26
2022-10-23T19:03:15.048Z,6.87
2022-10-23T19:05:41.415Z,7.17
2022-10-23T19:08:07.809Z,7.43
2022-10-23T19:10:34.213Z,6.43
2022-10-23T19:13:00.593Z,5.61
2022-10-23T19:15:26.951Z,6.79
2022-10-23T19:17:53.303Z,7.07
2022-10-23T19:20:19.730Z,6.79
2022-10-23T19:22:46.383Z,5.87
2022-10-23T19:25:13.183Z,6.91
2022-10-23T19:27:39.559Z,7.10
2022-10-23T19:30:06.020Z,5.90
2022-10-23T19:32:32.393Z,5.87
2022-10-23T19:34:58.796Z,6.11
2022-10-23T19:37:25.227Z,6.65
2022-10-23T19:39:51.588Z,6.19
2022-10-23T19:42:20.098Z,6.40
2022-10-23T19:44:46.468Z,6.67
2022-10-23T19:47:12.830Z,7.23
2022-10-23T19:49:39.186Z,6.89
2022-10-23T19:52:05.541Z,6.58
2022-10-23T19:54:31.920Z,6.64
2022-10-23T19:56:58.312Z,6.26
2022-10-23T19:59:24.659Z,6.10
2022-10-23T20:01:51.165Z,5.85
2022-10-23T20:04:17.582Z,5.64
2022-10-23T20:06:43.942Z,5.37
2022-10-23T20:09:10.302Z,4.96
2022-10-23T20:11:36.665Z,4.84
2022-10-23T20:14:03.042Z,4.73
2022-10-23T20:16:29.407Z,5.05
2022-10-23T20:18:55.759Z,4.42
2022-10-23T20:21:22.137Z,4.71
2022-10-23T20:23:48.505Z,5.32
2022-10-23T20:26:14.870Z,5.25
2022-10-23T20:28:41.226Z,4.60
2022-10-23T20:31:07.584Z,4.71
2022-10-23T20:33:33.947Z,5.17
2022-10-23T20:36:00.288Z,5.41
2022-10-23T20:38:26.690Z,5.37
2022-10-23T20:40:53.063Z,5.03
2022-10-23T20:43:19.429Z,5.06
2022-10-23T20:45:45.792Z,6.37
2022-10-23T20:48:12.141Z,6.20
2022-10-23T20:50:38.516Z,5.46
2022-10-23T20:53:04.876Z,8.96
2022-10-23T20:55:31.250Z,7.05
2022-10-23T20:57:57.610Z,5.15
2022-10-23T21:00:23.969Z,5.08
2022-10-23T21:02:52.676Z,5.27
2022-10-23T21:05:19.276Z,6.83
2022-10-23T21:07:45.650Z,5.83
2022-10-23T21:10:12.010Z,5.43
2022-10-23T21:12:38.377Z,5.15
2022-10-23T21:15:04.723Z,5.34
2022-10-23T21:19:58.344Z,5.74
2022-10-23T21:22:24.712Z,5.11
2022-10-23T21:24:51.081Z,5.35
2022-10-23T21:27:17.425Z,5.68
2022-10-23T21:29:43.774Z,5.50
2022-10-23T21:32:10.119Z,5.64
2022-10-23T21:34:36.478Z,5.40
2022-10-23T21:37:18.120Z,5.71
2022-10-23T21:39:44.520Z,5.85
2022-10-23T21:42:10.874Z,5.59
2022-10-23T21:44:37.243Z,6.28
2022-10-23T21:47:03.634Z,5.42
2022-10-23T21:49:29.979Z,5.41
2022-10-23T21:51:56.333Z,5.77
2022-10-23T21:54:22.687Z,6.51
2022-10-23T21:56:49.062Z,6.80
2022-10-23T21:59:15.411Z,6.07
2022-10-23T22:01:41.854Z,6.21
2022-10-23T22:04:08.288Z,6.54
2022-10-23T22:06:34.642Z,6.34
2022-10-23T22:09:00.997Z,5.71
2022-10-23T22:11:27.358Z,6.69
2022-10-23T22:13:53.712Z,6.85
2022-10-23T22:16:20.074Z,6.68
2022-10-23T22:18:46.864Z,6.22
2022-10-23T22:21:13.228Z,6.22
2022-10-23T22:23:39.576Z,10.52
2022-10-23T22:26:05.981Z,6.04
2022-10-23T22:28:32.345Z,5.72
2022-10-23T22:30:58.708Z,5.88
2022-10-23T22:33:25.167Z,5.67
2022-10-23T22:35:51.527Z,5.95
2022-10-23T22:38:17.880Z,5.40
2022-10-23T22:40:46.642Z,5.58
2022-10-23T22:43:13.210Z,5.36
2022-10-23T22:45:39.577Z,5.11
